Time;durP1;ratioP1;P1;durP2;ratioP2;P2;SDS_P1;SDS_P2;PMS_P1;PMS_P2;Temp;Humidity;BMP_temperature;BMP_pressure;BME280_temperature;BME280_humidity;BME280_pressure;Samples;Min_cycle;Max_cycle;Signal;HPM_P1;HPM_P2
2022/05/10 00:01:50;;;;;;;23.13;19.97;;;;;;;12.83;100.00;96950.81;5063684;28;20064;-47
2022/05/10 00:04:19;;;;;;;23.60;21.10;;;;;;;12.79;100.00;96944.16;5064003;28;20079;-53
2022/05/10 00:06:50;;;;;;;24.67;22.08;;;;;;;12.76;100.00;96947.91;5066813;28;20526;-48
2022/05/10 00:09:21;;;;;;;27.55;23.45;;;;;;;12.55;100.00;96949.97;5062577;28;20064;-55
2022/05/10 00:11:50;;;;;;;28.13;23.80;;;;;;;12.48;100.00;96939.13;5061231;28;20068;-47
2022/05/10 00:14:18;;;;;;;27.40;24.45;;;;;;;12.37;100.00;96939.31;5065976;28;20095;-46
2022/05/10 00:16:51;;;;;;;26.25;23.45;;;;;;;12.47;100.00;96936.63;5066408;28;20068;-46
2022/05/10 00:19:20;;;;;;;27.45;23.70;;;;;;;12.64;100.00;96940.34;5067313;28;20102;-47
2022/05/10 00:21:48;;;;;;;27.60;24.58;;;;;;;12.73;100.00;96931.50;5065837;28;20084;-50
2022/05/10 00:24:17;;;;;;;28.30;24.92;;;;;;;12.76;100.00;96939.97;5065957;28;20471;-49
2022/05/10 00:26:46;;;;;;;27.60;24.60;;;;;;;12.82;100.00;96930.63;5064463;28;20084;-53
2022/05/10 00:29:14;;;;;;;28.00;23.98;;;;;;;12.85;100.00;96930.34;5064172;28;20493;-51
2022/05/10 00:31:42;;;;;;;23.02;20.52;;;;;;;12.72;100.00;96929.84;5064746;28;20083;-50
2022/05/10 00:34:14;;;;;;;23.75;20.73;;;;;;;12.68;100.00;96936.41;5062575;28;20086;-49
2022/05/10 00:36:43;;;;;;;31.00;24.80;;;;;;;12.71;100.00;96941.41;5062507;28;20923;-46
2022/05/10 00:39:12;;;;;;;30.98;24.25;;;;;;;12.75;100.00;96930.38;5063426;28;20076;-49
2022/05/10 00:41:50;;;;;;;27.02;23.92;;;;;;;12.80;100.00;96933.44;5061657;28;20095;-48
2022/05/10 00:44:21;;;;;;;24.88;22.20;;;;;;;12.67;100.00;96929.47;5065872;28;20775;-47
2022/05/10 00:46:57;;;;;;;25.65;22.85;;;;;;;12.66;100.00;96928.59;5068007;28;20067;-51
2022/05/10 00:49:30;;;;;;;25.85;21.77;;;;;;;12.68;100.00;96924.00;5067836;28;20081;-49
2022/05/10 00:52:04;;;;;;;24.00;21.45;;;;;;;12.59;100.00;96920.44;5061109;28;20442;-50
2022/05/10 00:54:35;;;;;;;22.48;20.08;;;;;;;12.52;100.00;96914.03;5068471;28;20087;-47
2022/05/10 00:57:12;;;;;;;23.55;19.83;;;;;;;12.38;100.00;96918.97;5064245;28;20454;-49
2022/05/10 00:59:48;;;;;;;26.42;23.30;;;;;;;12.69;100.00;96906.31;5068002;28;20074;-49
2022/05/10 01:02:39;;;;;;;24.60;21.85;;;;;;;12.54;100.00;96913.91;5063714;28;20071;-47
2022/05/10 01:05:14;;;;;;;25.10;22.27;;;;;;;12.44;100.00;96907.81;5062995;28;20083;-50
2022/05/10 01:07:49;;;;;;;27.05;21.75;;;;;;;12.16;100.00;96912.22;5063984;28;20518;-52
2022/05/10 01:10:26;;;;;;;25.48;22.70;;;;;;;12.31;100.00;96908.97;5062191;28;20087;-47
2022/05/10 01:12:59;;;;;;;24.92;21.38;;;;;;;12.44;100.00;96905.19;5059883;28;20709;-50
2022/05/10 01:15:28;;;;;;;25.13;21.88;;;;;;;12.40;100.00;96912.56;5064888;28;20064;-46
2022/05/10 01:17:58;;;;;;;25.20;22.50;;;;;;;12.39;100.00;96907.41;5065609;28;20056;-54
2022/05/10 01:20:31;;;;;;;27.38;23.80;;;;;;;12.44;100.00;96903.38;5065384;28;20068;-49
2022/05/10 01:23:16;;;;;;;31.80;25.77;;;;;;;12.50;100.00;96900.16;5047950;28;20056;-51
2022/05/10 01:25:53;;;;;;;28.88;24.55;;;;;;;12.41;100.00;96901.00;5059948;28;20459;-51
2022/05/10 01:28:27;;;;;;;28.70;24.58;;;;;;;12.34;100.00;96900.75;5063972;28;20699;-49
2022/05/10 01:30:58;;;;;;;21.88;19.52;;;;;;;12.19;100.00;96906.66;5062836;28;20064;-48
2022/05/10 01:33:29;;;;;;;20.35;18.15;;;;;;;11.82;100.00;96908.22;5064418;28;20056;-47
2022/05/10 01:36:15;;;;;;;18.88;16.98;;;;;;;11.58;100.00;96903.38;5065766;28;20471;-50
2022/05/10 01:39:01;;;;;;;20.40;17.17;;;;;;;11.79;100.00;96895.28;5046587;28;20060;-51
2022/05/10 01:41:38;;;;;;;18.90;16.90;;;;;;;11.65;100.00;96906.28;5064408;28;20526;-46
2022/05/10 01:44:15;;;;;;;17.80;15.90;;;;;;;11.62;100.00;96910.03;5063806;28;20446;-47
2022/05/10 01:46:45;;;;;;;16.13;14.15;;;;;;;11.47;100.00;96911.44;5063152;28;20096;-49
2022/05/10 01:49:20;;;;;;;13.73;12.33;;;;;;;11.37;100.00;96910.63;5065165;28;20691;-48
2022/05/10 01:51:53;;;;;;;15.48;13.75;;;;;;;11.52;100.00;96913.66;5061399;28;20553;-47
2022/05/10 01:54:55;;;;;;;21.85;19.33;;;;;;;11.60;100.00;96909.38;5064221;28;20460;-48
2022/05/10 01:57:23;;;;;;;21.13;18.08;;;;;;;11.27;100.00;96920.34;5051611;28;20080;-50
2022/05/10 01:59:58;;;;;;;22.08;19.42;;;;;;;11.40;100.00;96915.63;5064413;28;20068;-47
2022/05/10 02:02:29;;;;;;;22.13;19.13;;;;;;;11.60;100.00;96904.09;5064291;28;20087;-47
2022/05/10 02:05:00;;;;;;;22.73;20.33;;;;;;;11.55;100.00;96908.13;5063016;28;20067;-51
2022/05/10 02:07:29;;;;;;;22.65;19.95;;;;;;;11.52;100.00;96908.38;5061835;28;20083;-51
2022/05/10 02:10:01;;;;;;;24.40;21.80;;;;;;;11.42;100.00;96905.75;5063763;28;20076;-48
2022/05/10 02:12:33;;;;;;;23.30;19.85;;;;;;;11.45;100.00;96918.66;5062281;28;20067;-50
2022/05/10 02:15:07;;;;;;;25.63;21.17;;;;;;;11.44;100.00;96916.19;5064464;28;20406;-50
2022/05/10 02:17:38;;;;;;;25.20;21.00;;;;;;;11.59;100.00;96905.03;5063747;28;20053;-46
2022/05/10 02:20:12;;;;;;;26.33;21.85;;;;;;;11.90;100.00;96912.81;5062157;28;20075;-48
2022/05/10 02:22:43;;;;;;;27.65;24.48;;;;;;;11.67;100.00;96911.47;5063475;28;20079;-49
2022/05/10 02:25:15;;;;;;;18.08;16.17;;;;;;;11.42;100.00;96905.75;5065715;28;20083;-49
2022/05/10 02:27:47;;;;;;;21.90;19.45;;;;;;;11.15;100.00;96915.19;5064611;28;20135;-48
2022/05/10 02:30:19;;;;;;;22.75;18.45;;;;;;;11.16;100.00;96908.09;5061954;28;20057;-46
2022/05/10 02:33:08;;;;;;;20.27;18.05;;;;;;;11.10;100.00;96908.66;5064237;28;20072;-46
2022/05/10 02:35:42;;;;;;;24.73;20.42;;;;;;;11.41;100.00;96904.09;5065027;28;20069;-49
2022/05/10 02:38:12;;;;;;;20.92;18.73;;;;;;;10.88;100.00;96915.00;5062946;28;20083;-48
2022/05/10 02:40:41;;;;;;;21.90;19.50;;;;;;;11.11;100.00;96913.81;5064654;28;20454;-47
2022/05/10 02:43:12;;;;;;;23.77;19.77;;;;;;;10.79;100.00;96919.25;5061562;28;20550;-47
2022/05/10 02:45:42;;;;;;;23.65;20.00;;;;;;;10.75;100.00;96922.31;5067500;28;20069;-46
2022/05/10 02:48:17;;;;;;;20.20;18.05;;;;;;;10.87;100.00;96916.81;5061609;28;20056;-46
2022/05/10 02:50:46;;;;;;;19.98;17.45;;;;;;;10.96;100.00;96920.44;5061640;28;20067;-46
2022/05/10 02:53:14;;;;;;;20.05;17.83;;;;;;;10.96;100.00;96916.97;5062132;28;20064;-50
2022/05/10 02:55:45;;;;;;;21.10;18.88;;;;;;;10.86;100.00;96911.66;5060081;28;20522;-46
2022/05/10 02:58:17;;;;;;;21.13;18.40;;;;;;;10.72;100.00;96915.50;5059870;28;20092;-47
2022/05/10 03:00:47;;;;;;;21.65;19.02;;;;;;;10.79;100.00;96911.34;5063978;28;20084;-47
2022/05/10 03:03:17;;;;;;;22.77;18.33;;;;;;;10.79;100.00;96915.81;5063273;28;20064;-51
2022/05/10 03:05:45;;;;;;;21.13;18.08;;;;;;;10.48;100.00;96921.09;5062863;28;20036;-47
2022/05/10 03:08:14;;;;;;;21.65;19.25;;;;;;;10.43;100.00;96918.03;5063072;28;20537;-47
2022/05/10 03:10:42;;;;;;;24.10;20.77;;;;;;;10.38;100.00;96915.78;5065009;28;20064;-47
2022/05/10 03:13:10;;;;;;;24.73;22.13;;;;;;;10.48;100.00;96909.72;5059620;28;20376;-47
2022/05/10 03:15:38;;;;;;;27.15;22.58;;;;;;;10.60;100.00;96908.69;5059551;28;20068;-46
2022/05/10 03:18:08;;;;;;;26.65;23.20;;;;;;;10.75;100.00;96919.69;5061914;28;20072;-45
2022/05/10 03:20:37;;;;;;;29.30;24.70;;;;;;;10.77;100.00;96925.63;5061314;28;20067;-47
2022/05/10 03:23:05;;;;;;;26.80;23.35;;;;;;;10.75;100.00;96917.03;5061431;28;20060;-45
2022/05/10 03:25:33;;;;;;;24.70;22.08;;;;;;;10.59;100.00;96922.81;5063275;28;20073;-51
2022/05/10 03:28:02;;;;;;;26.15;23.30;;;;;;;10.60;100.00;96927.13;5063189;28;20072;-50
2022/05/10 03:30:31;;;;;;;25.77;22.05;;;;;;;10.55;100.00;96926.69;5057114;28;20186;-49
2022/05/10 03:33:00;;;;;;;24.25;21.00;;;;;;;10.60;100.00;96924.50;5057174;28;20068;-51
2022/05/10 03:35:29;;;;;;;24.80;21.33;;;;;;;10.65;100.00;96914.38;5060644;28;20063;-50
2022/05/10 03:37:58;;;;;;;26.13;21.77;;;;;;;10.56;100.00;96916.00;5062422;28;20118;-45
2022/05/10 03:40:26;;;;;;;25.20;21.10;;;;;;;10.56;100.00;96917.78;5062576;28;20071;-47
2022/05/10 03:42:54;;;;;;;27.75;21.40;;;;;;;10.54;100.00;96923.22;5063454;28;20555;-49
2022/05/10 03:45:23;;;;;;;24.58;20.95;;;;;;;10.42;100.00;96917.19;5066351;28;20070;-50
2022/05/10 03:47:52;;;;;;;22.70;20.27;;;;;;;10.47;100.00;96922.09;5061305;28;20599;-45
2022/05/10 03:50:23;;;;;;;25.05;21.33;;;;;;;10.52;100.00;96917.22;5066441;28;20072;-53
2022/05/10 03:52:53;;;;;;;25.73;22.92;;;;;;;10.57;100.00;96922.97;5067963;28;20086;-54
2022/05/10 03:55:24;;;;;;;29.48;23.25;;;;;;;10.46;100.00;96925.69;5068175;28;20613;-49
2022/05/10 03:57:52;;;;;;;30.13;24.38;;;;;;;10.50;100.00;96916.53;5065028;28;20083;-45
2022/05/10 04:00:23;;;;;;;26.13;23.15;;;;;;;10.75;100.00;96923.16;5061950;28;20083;-50
2022/05/10 04:02:51;;;;;;;29.17;24.08;;;;;;;10.75;100.00;96919.69;5044704;28;20045;-51
2022/05/10 04:05:20;;;;;;;30.30;23.35;;;;;;;10.79;100.00;96924.53;5059847;28;20048;-52
2022/05/10 04:07:49;;;;;;;25.77;22.75;;;;;;;10.81;100.00;96919.16;5067447;28;20442;-46
2022/05/10 04:10:19;;;;;;;22.48;20.13;;;;;;;11.10;100.00;96912.09;5058234;28;20084;-46
2022/05/10 04:12:48;;;;;;;22.35;20.10;;;;;;;11.07;100.00;96915.03;5061269;28;20072;-48
2022/05/10 04:15:18;;;;;;;28.90;19.98;;;;;;;11.22;100.00;96917.25;5063615;28;20056;-47
2022/05/10 04:17:46;;;;;;;23.80;21.20;;;;;;;11.63;100.00;96906.44;5061482;28;20075;-46
2022/05/10 04:20:15;;;;;;;22.38;20.02;;;;;;;11.56;100.00;96912.41;5062709;28;20072;-51
2022/05/10 04:22:44;;;;;;;25.42;19.00;;;;;;;11.77;100.00;96907.81;5059349;28;20045;-46
2022/05/10 04:25:18;;;;;;;19.20;17.30;;;;;;;12.48;100.00;96906.56;5065366;28;20092;-48
2022/05/10 04:27:48;;;;;;;17.63;16.02;;;;;;;12.93;100.00;96897.84;5064497;28;20084;-49
2022/05/10 04:30:16;;;;;;;16.98;15.48;;;;;;;13.30;100.00;96898.59;5061418;28;20075;-47
2022/05/10 04:32:45;;;;;;;16.83;15.32;;;;;;;14.02;100.00;96896.72;5064512;28;20052;-48
2022/05/10 04:35:14;;;;;;;15.95;14.55;;;;;;;14.67;100.00;96898.09;5064376;28;20079;-51
2022/05/10 04:37:42;;;;;;;14.82;13.63;;;;;;;14.83;100.00;96898.19;5065529;28;20079;-46
2022/05/10 04:42:59;;;;;;;13.70;12.60;;;;;;;15.31;100.00;96903.75;5065300;28;20084;-50
2022/05/10 04:45:28;;;;;;;14.02;12.93;;;;;;;15.46;100.00;96904.81;5063928;28;20455;-48
2022/05/10 04:47:57;;;;;;;13.45;12.25;;;;;;;16.12;100.00;96903.84;5066534;28;20102;-49
2022/05/10 04:50:25;;;;;;;13.18;12.07;;;;;;;15.83;100.00;96900.88;5065968;28;20541;-47
2022/05/10 04:52:53;;;;;;;12.85;11.82;;;;;;;15.99;100.00;96897.34;5061868;28;20068;-46
2022/05/10 04:55:22;;;;;;;12.98;11.93;;;;;;;15.44;100.00;96901.47;5060769;28;20490;-51
2022/05/10 04:57:50;;;;;;;12.98;11.88;;;;;;;15.88;100.00;96893.22;5064737;28;20084;-51
2022/05/10 05:00:21;;;;;;;13.25;12.05;;;;;;;16.21;100.00;96896.69;5056133;28;20071;-48
2022/05/10 05:02:49;;;;;;;13.75;12.45;;;;;;;16.71;100.00;96892.88;5064188;28;20301;-50
2022/05/10 05:05:17;;;;;;;13.80;12.63;;;;;;;17.17;100.00;96900.16;5064356;28;20182;-50
2022/05/10 05:07:46;;;;;;;13.93;12.65;;;;;;;17.30;100.00;96900.44;5045285;28;20060;-47
2022/05/10 05:10:14;;;;;;;13.10;11.90;;;;;;;17.04;100.00;96898.09;5065189;28;20256;-48
2022/05/10 05:12:43;;;;;;;12.57;11.45;;;;;;;17.19;100.00;96901.66;5065511;28;20068;-48
2022/05/10 05:15:12;;;;;;;13.27;12.07;;;;;;;17.70;100.00;96891.34;5044836;28;20516;-48
2022/05/10 05:17:47;;;;;;;13.07;11.77;;;;;;;17.63;100.00;96905.56;5061303;28;20067;-52
2022/05/10 05:20:16;;;;;;;13.20;12.10;;;;;;;16.92;100.00;96907.47;5066836;28;20079;-49
2022/05/10 05:22:44;;;;;;;13.48;12.20;;;;;;;17.11;100.00;96915.03;5057689;28;20057;-50
2022/05/10 05:25:12;;;;;;;13.35;12.15;;;;;;;16.99;100.00;96913.75;5063670;28;20079;-51
2022/05/10 05:27:40;;;;;;;12.18;11.15;;;;;;;17.96;100.00;96912.34;5063661;28;20063;-49
2022/05/10 05:30:15;;;;;;;13.00;11.80;;;;;;;18.03;100.00;96921.28;5061591;28;20060;-55
2022/05/10 05:32:44;;;;;;;12.98;11.68;;;;;;;18.56;100.00;96917.78;5059985;28;20439;-47
2022/05/10 05:35:13;;;;;;;12.55;11.35;;;;;;;18.72;100.00;96920.31;5062047;28;20068;-46
2022/05/10 05:37:42;;;;;;;13.02;11.77;;;;;;;18.61;100.00;96921.53;5064237;28;20423;-51
2022/05/10 05:40:12;;;;;;;11.82;10.70;;;;;;;18.73;100.00;96924.63;5057547;28;20080;-53
2022/05/10 05:42:47;;;;;;;12.35;11.15;;;;;;;18.51;100.00;96920.97;5060543;28;20079;-54
2022/05/10 05:45:17;;;;;;;11.63;10.52;;;;;;;18.56;100.00;96929.28;5063605;28;20072;-47
2022/05/10 05:47:46;;;;;;;13.10;11.68;;;;;;;17.90;100.00;96925.56;5062114;28;20071;-46
2022/05/10 05:50:17;;;;;;;13.95;12.52;;;;;;;17.26;100.00;96931.13;5066035;28;20072;-47
2022/05/10 05:52:46;;;;;;;14.05;12.55;;;;;;;17.87;100.00;96933.94;5065465;28;20060;-48
2022/05/10 05:55:15;;;;;;;17.02;13.38;;;;;;;17.54;100.00;96929.59;5062226;28;20072;-54
2022/05/10 05:57:45;;;;;;;15.10;13.65;;;;;;;17.27;100.00;96927.44;5061619;28;20442;-52
2022/05/10 06:00:16;;;;;;;15.20;13.52;;;;;;;17.30;100.00;96927.91;5061534;28;20060;-48
2022/05/10 06:02:44;;;;;;;14.68;13.27;;;;;;;17.09;100.00;96930.38;5057296;28;20071;-49
2022/05/10 06:05:13;;;;;;;15.30;13.43;;;;;;;17.35;100.00;96929.25;5060950;28;20060;-53
2022/05/10 06:07:43;;;;;;;15.55;13.48;;;;;;;16.66;100.00;96929.84;5060523;28;20437;-48
2022/05/10 06:10:12;;;;;;;14.07;12.55;;;;;;;16.29;100.00;96938.41;5066508;28;20506;-53
2022/05/10 06:12:41;;;;;;;15.18;13.48;;;;;;;17.17;100.00;96927.69;5068993;28;20682;-48
2022/05/10 06:15:13;;;;;;;14.00;12.52;;;;;;;17.05;100.00;96927.22;5068731;28;20529;-48
2022/05/10 06:17:43;;;;;;;13.57;12.18;;;;;;;17.42;100.00;96927.53;5068822;28;20056;-47
2022/05/10 06:20:14;;;;;;;13.90;12.35;;;;;;;16.55;100.00;96930.19;5067950;28;20056;-47
2022/05/10 06:22:45;;;;;;;14.55;12.88;;;;;;;16.79;100.00;96926.66;5067842;28;20078;-48
2022/05/10 06:25:15;;;;;;;14.40;12.63;;;;;;;17.33;100.00;96918.75;5068457;28;20447;-52
2022/05/10 06:27:43;;;;;;;16.05;13.93;;;;;;;17.42;100.00;96923.03;5068268;28;20064;-46
2022/05/10 06:30:13;;;;;;;15.02;13.52;;;;;;;17.48;100.00;96922.34;5067808;28;20082;-52
2022/05/10 06:32:41;;;;;;;17.50;14.30;;;;;;;17.37;100.00;96925.38;5066020;28;20112;-49
2022/05/10 06:35:10;;;;;;;15.60;14.00;;;;;;;17.53;100.00;96929.78;5068309;28;20068;-54
2022/05/10 06:40:26;;;;;;;14.48;13.07;;;;;;;17.79;100.00;96924.16;5067890;28;20091;-52
2022/05/10 06:42:58;;;;;;;14.35;12.68;;;;;;;18.08;100.00;96923.41;5068718;28;20052;-51
2022/05/10 06:45:27;;;;;;;17.92;14.48;;;;;;;18.23;100.00;96924.25;5061572;28;20068;-51
2022/05/10 06:47:55;;;;;;;17.77;13.68;;;;;;;18.28;100.00;96913.06;5061548;28;20056;-53
2022/05/10 06:50:25;;;;;;;15.05;13.23;;;;;;;18.62;100.00;96922.38;5067747;28;20585;-49
2022/05/10 06:52:57;;;;;;;15.57;13.43;;;;;;;18.31;100.00;96919.88;5070979;28;20048;-48
2022/05/10 06:55:27;;;;;;;16.85;13.07;;;;;;;18.41;100.00;96915.94;5068151;28;20083;-46
2022/05/10 06:57:56;;;;;;;14.35;12.88;;;;;;;18.93;100.00;96915.03;5068329;28;20082;-46
2022/05/10 07:00:32;;;;;;;15.98;13.52;;;;;;;19.10;100.00;96917.50;5068172;28;20064;-50
2022/05/10 07:03:04;;;;;;;15.30;13.68;;;;;;;18.64;100.00;96912.34;5067873;28;20068;-48
2022/05/10 07:05:33;;;;;;;16.77;14.40;;;;;;;18.81;100.00;96918.34;5068423;28;20079;-49
2022/05/10 07:08:01;;;;;;;15.80;14.10;;;;;;;18.68;100.00;96916.28;5068138;28;20495;-53
2022/05/10 07:10:31;;;;;;;15.48;13.85;;;;;;;19.41;100.00;96906.56;5074525;28;20071;-50
2022/05/10 07:13:00;;;;;;;15.27;13.68;;;;;;;19.68;100.00;96905.00;5074806;28;20083;-47
2022/05/10 07:15:30;;;;;;;15.77;14.13;;;;;;;19.57;100.00;96910.81;5070419;28;20060;-52
2022/05/10 07:17:58;;;;;;;16.93;14.40;;;;;;;20.18;100.00;96897.00;5071589;28;20056;-49
2022/05/10 07:20:26;;;;;;;15.50;13.75;;;;;;;19.82;100.00;96903.28;5071644;28;20060;-52
2022/05/10 07:22:54;;;;;;;15.98;13.88;;;;;;;20.29;100.00;96897.28;5071934;28;20067;-50
2022/05/10 07:25:25;;;;;;;16.30;14.60;;;;;;;20.04;100.00;96904.91;5071290;28;20507;-49
2022/05/10 07:27:55;;;;;;;17.70;13.68;;;;;;;20.21;100.00;96900.13;5070806;28;20165;-52
2022/05/10 07:30:24;;;;;;;15.68;13.80;;;;;;;20.57;100.00;96904.50;5070497;28;20103;-50
2022/05/10 07:32:53;;;;;;;15.47;13.87;;;;;;;20.86;100.00;96896.22;5070322;28;20447;-50
2022/05/10 07:36:23;;;;;;;15.52;13.65;;;;;;;20.70;100.00;96899.22;5066698;28;20079;-53
2022/05/10 07:38:12;;;;;;;16.67;14.00;;;;;;;20.04;100.00;96901.41;5071344;28;20083;-53
2022/05/10 07:40:42;;;;;;;17.47;13.50;;;;;;;21.13;100.00;96903.56;5071541;28;20067;-49
2022/05/10 07:43:13;;;;;;;17.73;15.13;;;;;;;20.74;100.00;96900.47;5071422;28;20112;-47
2022/05/10 07:45:42;;;;;;;15.73;14.10;;;;;;;21.23;100.00;96904.00;5071796;28;20569;-49
2022/05/10 07:48:11;;;;;;;16.60;14.90;;;;;;;21.26;100.00;96893.69;5071352;28;20510;-47
2022/05/10 07:50:40;;;;;;;16.83;15.07;;;;;;;21.27;100.00;96895.38;5071128;28;20723;-47
2022/05/10 07:53:10;;;;;;;18.23;15.32;;;;;;;21.48;100.00;96889.06;5071195;28;20075;-47
2022/05/10 07:55:39;;;;;;;17.25;14.27;;;;;;;21.27;100.00;96895.38;5071062;28;20498;-54
2022/05/10 07:58:08;;;;;;;15.88;14.25;;;;;;;21.52;100.00;96895.69;5067427;28;20456;-48
2022/05/10 08:00:39;;;;;;;18.98;14.35;;;;;;;21.73;100.00;96893.84;5071484;28;20536;-47
2022/05/10 08:03:09;;;;;;;16.40;14.60;;;;;;;21.77;100.00;96889.72;5070844;28;20060;-47
2022/05/10 08:05:38;;;;;;;16.75;14.43;;;;;;;21.55;100.00;96889.09;5071062;28;20537;-51
2022/05/10 08:08:07;;;;;;;15.85;14.23;;;;;;;21.59;100.00;96879.59;5070918;28;20438;-47
2022/05/10 08:10:36;;;;;;;16.95;15.25;;;;;;;21.25;100.00;96888.53;5069053;28;20049;-47
2022/05/10 08:13:08;;;;;;;19.42;15.95;;;;;;;21.72;100.00;96884.97;5069804;28;20076;-50
2022/05/10 08:15:38;;;;;;;16.08;14.43;;;;;;;22.15;100.00;96881.91;5070681;28;20079;-54
2022/05/10 08:18:07;;;;;;;18.52;16.63;;;;;;;22.43;100.00;96881.69;5070465;28;20060;-52
2022/05/10 08:20:36;;;;;;;18.23;15.07;;;;;;;22.35;100.00;96876.53;5069048;28;20059;-49
2022/05/10 08:23:06;;;;;;;15.35;13.75;;;;;;;22.21;100.00;96878.41;5051615;28;20079;-51
2022/05/10 08:25:34;;;;;;;15.15;13.45;;;;;;;22.80;100.00;96878.50;5071067;28;20060;-51
2022/05/10 08:28:04;;;;;;;15.05;13.60;;;;;;;22.10;100.00;96878.19;5064581;28;20455;-48
2022/05/10 08:30:33;;;;;;;16.00;14.07;;;;;;;21.83;100.00;96880.84;5070491;28;20032;-47
2022/05/10 08:33:02;;;;;;;15.48;13.00;;;;;;;22.41;100.00;96878.41;5070039;28;20060;-51
2022/05/10 08:35:45;;;;;;;14.63;13.23;;;;;;;21.86;100.00;96883.13;5070007;28;20460;-50
2022/05/10 08:38:13;;;;;;;14.80;13.30;;;;;;;22.00;100.00;96883.97;5069874;28;20522;-50
2022/05/10 08:40:43;;;;;;;14.93;13.43;;;;;;;21.76;100.00;96885.41;5070417;28;20507;-51
2022/05/10 08:43:16;;;;;;;16.00;13.50;;;;;;;22.58;100.00;96883.34;5069973;28;20076;-50
2022/05/10 08:45:46;;;;;;;16.08;12.73;;;;;;;22.65;100.00;96881.47;5077509;28;20080;-51
2022/05/10 08:48:16;;;;;;;15.02;12.18;;;;;;;23.00;100.00;96876.63;5069912;28;20721;-48
2022/05/10 08:50:47;;;;;;;14.35;12.85;;;;;;;22.92;100.00;96875.00;5070426;28;20071;-52
2022/05/10 08:53:16;;;;;;;14.73;12.77;;;;;;;22.84;100.00;96883.25;5068000;28;20443;-53
2022/05/10 08:55:57;;;;;;;14.02;12.60;;;;;;;23.00;100.00;96875.78;5069823;28;20330;-53
2022/05/10 08:58:42;;;;;;;13.68;12.10;;;;;;;23.03;100.00;96884.25;5066778;28;20060;-56
2022/05/10 09:01:34;;;;;;;13.93;12.57;;;;;;;23.15;100.00;96877.16;5069212;28;20072;-50
2022/05/10 09:04:12;;;;;;;16.17;13.98;;;;;;;22.91;100.00;96869.78;5070478;28;20511;-51
2022/05/10 09:06:54;;;;;;;13.68;12.38;;;;;;;22.49;100.00;96875.47;5063710;28;21452;-50
2022/05/10 09:09:27;;;;;;;15.43;13.80;;;;;;;22.68;100.00;96872.97;5065518;28;20075;-50
2022/05/10 09:12:12;;;;;;;14.68;13.02;;;;;;;22.78;100.00;96867.97;5069673;28;20064;-47
2022/05/10 09:14:46;;;;;;;14.93;13.43;;;;;;;22.94;100.00;96862.13;5069189;28;20064;-50
2022/05/10 09:17:16;;;;;;;13.70;12.38;;;;;;;23.33;100.00;96865.72;5062383;28;20056;-48
2022/05/10 09:19:46;;;;;;;14.40;13.00;;;;;;;23.04;100.00;96866.25;5068113;28;20546;-51
2022/05/10 09:22:43;;;;;;;14.95;12.75;;;;;;;23.36;100.00;96864.44;5066439;28;20060;-54
2022/05/10 09:25:18;;;;;;;14.13;11.85;;;;;;;23.57;100.00;96863.28;5069763;28;20095;-54
2022/05/10 09:27:48;;;;;;;11.77;10.57;;;;;;;24.03;100.00;96859.47;5069396;28;20072;-53
2022/05/10 09:30:29;;;;;;;14.70;12.35;;;;;;;24.29;100.00;96861.91;5069449;28;20039;-48
2022/05/10 09:36:10;;;;;;;12.52;11.13;;;;;;;23.96;100.00;96859.50;5064816;28;20068;-49
2022/05/10 09:38:47;;;;;;;12.27;11.02;;;;;;;24.02;100.00;96860.50;5068003;28;20063;-50
2022/05/10 09:41:30;;;;;;;12.88;11.68;;;;;;;24.00;100.00;96860.72;5069213;28;20602;-52
2022/05/10 09:44:14;;;;;;;13.23;11.82;;;;;;;24.05;100.00;96860.88;5067744;28;20071;-49
2022/05/10 09:46:42;;;;;;;13.25;11.10;;;;;;;24.62;100.00;96863.50;5068527;28;20056;-54
2022/05/10 09:49:34;;;;;;;12.10;10.90;;;;;;;24.44;98.78;96856.22;5068651;28;20075;-53
2022/05/10 09:52:05;;;;;;;10.48;9.18;;;;;;;24.35;92.50;96855.63;5064652;28;20040;-49
2022/05/10 09:54:37;;;;;;;11.30;9.02;;;;;;;24.57;78.80;96856.09;5071432;28;20357;-48
2022/05/10 09:57:10;;;;;;;12.40;11.20;;;;;;;23.61;89.25;96853.75;5068940;28;20447;-48
2022/05/10 09:59:44;;;;;;;11.07;9.90;;;;;;;24.77;80.31;96855.84;5068732;28;20096;-51
2022/05/10 10:02:25;;;;;;;9.23;8.20;;;;;;;25.17;69.38;96855.41;5068298;28;20556;-51
2022/05/10 10:04:54;;;;;;;10.10;9.07;;;;;;;24.94;63.74;96849.84;5066773;28;20124;-55
2022/05/10 10:07:25;;;;;;;9.88;9.00;;;;;;;25.69;64.56;96847.63;5068347;28;20502;-55
2022/05/10 10:09:56;;;;;;;9.70;8.70;;;;;;;24.97;62.56;96844.00;5069127;28;20594;-52
2022/05/10 10:12:33;;;;;;;10.45;9.45;;;;;;;24.22;72.75;96846.84;5068468;28;20084;-54
2022/05/10 10:15:15;;;;;;;9.90;8.57;;;;;;;24.73;71.76;96845.75;5068034;28;20048;-53
2022/05/10 10:17:51;;;;;;;8.27;6.70;;;;;;;24.50;59.60;96846.41;5066236;28;20060;-49
2022/05/10 10:20:27;;;;;;;8.40;7.60;;;;;;;24.83;55.88;96844.16;5068175;28;20068;-50
2022/05/10 10:22:57;;;;;;;7.43;6.60;;;;;;;24.73;55.71;96848.44;5062031;28;20573;-50
2022/05/10 10:25:28;;;;;;;9.13;6.85;;;;;;;24.53;52.52;96851.34;5065674;28;20064;-54
2022/05/10 10:28:00;;;;;;;10.27;6.72;;;;;;;25.12;56.37;96839.09;5068774;28;20084;-52
2022/05/10 10:30:33;;;;;;;5.57;5.05;;;;;;;24.80;50.18;96833.81;5068162;28;20063;-50
2022/05/10 10:33:03;;;;;;;9.82;8.93;;;;;;;25.25;57.29;96835.38;5067891;28;20535;-55
2022/05/10 10:35:35;;;;;;;9.55;8.55;;;;;;;24.95;60.94;96836.16;5068515;28;20068;-49
2022/05/10 10:38:12;;;;;;;9.75;8.80;;;;;;;25.74;52.59;96831.53;5068426;28;20067;-50
2022/05/10 10:40:43;;;;;;;9.43;8.05;;;;;;;25.71;59.07;96836.59;5065551;28;20063;-47
2022/05/10 10:43:29;;;;;;;9.02;8.18;;;;;;;25.88;55.67;96828.63;5067558;28;20137;-52
2022/05/10 10:46:04;;;;;;;10.27;9.27;;;;;;;25.62;54.17;96827.16;5063096;28;20074;-53
2022/05/10 10:48:38;;;;;;;11.02;9.93;;;;;;;25.56;60.86;96815.41;5067745;28;20471;-48
2022/05/10 10:51:06;;;;;;;11.30;9.48;;;;;;;25.89;55.92;96817.63;5068053;28;20064;-48
2022/05/10 10:53:37;;;;;;;11.43;9.30;;;;;;;24.94;61.86;96814.78;5068143;28;20069;-45
2022/05/10 10:56:21;;;;;;;8.45;7.57;;;;;;;25.33;56.47;96816.97;5068399;28;20060;-49
2022/05/10 10:59:01;;;;;;;9.77;8.65;;;;;;;24.96;59.69;96810.00;5068053;28;20078;-51
2022/05/10 11:01:37;;;;;;;;;;;;;;;25.16;57.15;96815.97;5065157;28;20083;-48
2022/05/10 11:04:14;;;;;;;11.15;8.90;;;;;;;25.58;63.49;96811.41;5062931;28;19967;-46
2022/05/10 11:06:47;;;;;;;12.10;10.80;;;;;;;25.41;61.83;96809.63;5068212;28;20084;-50
2022/05/10 11:09:41;;;;;;;11.00;8.98;;;;;;;25.29;53.82;96812.25;5067364;28;20083;-54
2022/05/10 11:12:32;;;;;;;6.70;6.00;;;;;;;25.70;47.13;96805.22;5061855;28;20067;-50
2022/05/10 11:15:17;;;;;;;8.10;5.88;;;;;;;26.07;46.98;96811.28;5064511;28;20464;-48
2022/05/10 11:18:04;;;;;;;8.70;7.90;;;;;;;25.46;49.18;96805.16;5071968;28;20063;-49
2022/05/10 11:20:48;;;;;;;10.23;9.18;;;;;;;25.07;51.19;96795.72;5067592;28;20060;-50
2022/05/10 11:23:28;;;;;;;8.45;7.60;;;;;;;25.12;49.05;96798.59;5068104;28;20060;-47
2022/05/10 11:26:07;;;;;;;10.20;8.00;;;;;;;25.98;57.20;96793.75;5068027;28;20056;-48
2022/05/10 11:28:54;;;;;;;10.83;9.50;;;;;;;25.96;61.39;96782.38;5062068;28;20059;-53
2022/05/10 11:31:32;;;;;;;12.00;10.80;;;;;;;25.78;65.98;96788.69;5067339;28;20076;-45
2022/05/10 11:34:08;;;;;;;10.40;8.88;;;;;;;25.81;57.80;96772.03;5068738;28;20163;-51
2022/05/10 11:36:41;;;;;;;10.25;8.10;;;;;;;25.30;52.27;96776.94;5065927;28;20524;-48
2022/05/10 11:39:22;;;;;;;8.77;7.88;;;;;;;24.76;54.50;96775.97;5067161;28;20500;-50
2022/05/10 11:42:14;;;;;;;10.05;7.85;;;;;;;25.39;54.10;96765.81;5061167;28;20067;-47
2022/05/10 11:44:55;;;;;;;9.48;8.57;;;;;;;25.69;57.11;96760.34;5067029;28;20097;-55